Time;durP1;ratioP1;P1;durP2;ratioP2;P2;SDS_P1;SDS_P2;PMS_P1;PMS_P2;Temp;Humidity;BMP_temperature;BMP_pressure;BME280_temperature;BME280_humidity;BME280_pressure;Samples;Min_cycle;Max_cycle;Signal;HPM_P1;HPM_P2
2021/09/29 03:15:04;;;;;;;;;;;;;;;10.48;80.90;99780.94;4990421;28;19972;-81
2021/09/29 03:17:30;;;;;;;;;;;;;;;10.42;80.90;99779.44;4994250;28;19926;-81
2021/09/29 03:19:55;;;;;;;;;;;;;;;10.34;80.19;99792.13;4994016;28;19925;-81
2021/09/29 03:22:21;;;;;;;;;;;;;;;10.35;78.82;99780.59;4994176;28;20278;-80
2021/09/29 03:24:46;;;;;;;;;;;;;;;10.28;79.62;99776.47;4994485;28;20384;-80
2021/09/29 03:27:11;;;;;;;;;;;;;;;10.28;80.30;99782.59;4992914;28;19925;-87
2021/09/29 03:29:36;;;;;;;;;;;;;;;10.36;80.81;99777.88;4994146;28;19957;-81
2021/09/29 03:32:02;;;;;;;;;;;;;;;10.35;81.02;99781.47;4976477;28;19918;-80
2021/09/29 03:34:27;;;;;;;;;;;;;;;10.38;78.24;99787.56;4976518;28;19956;-80
2021/09/29 03:36:53;;;;;;;;;;;;;;;10.30;80.23;99786.03;4976868;28;19926;-89
2021/09/29 03:39:18;;;;;;;;;;;;;;;10.30;81.47;99782.53;4992517;28;20288;-82
2021/09/29 03:41:43;;;;;;;;;;;;;;;10.41;84.12;99783.00;4992608;28;20270;-82
2021/09/29 03:44:09;;;;;;;;;;;;;;;10.61;88.05;99774.19;4993715;28;20007;-85
2021/09/29 03:46:34;;;;;;;;;;;;;;;10.54;90.51;99784.19;4993647;28;19971;-82
2021/09/29 03:48:59;;;;;;;;;;;;;;;10.52;90.66;99779.88;4975961;28;19972;-80
2021/09/29 03:51:25;;;;;;;;;;;;;;;10.48;91.30;99783.59;4976183;28;20284;-84
2021/09/29 03:53:50;;;;;;;;;;;;;;;10.43;89.28;99782.94;4993629;28;19925;-89
2021/09/29 03:56:16;;;;;;;;;;;;;;;10.43;89.45;99780.28;4976134;28;19928;-84
2021/09/29 03:58:41;;;;;;;;;;;;;;;10.64;90.79;99778.50;4992008;28;19918;-85
2021/09/29 04:01:06;;;;;;;;;;;;;;;10.75;92.64;99778.03;4993413;28;19976;-80
2021/09/29 04:03:32;;;;;;;;;;;;;;;10.69;91.79;99781.78;4967102;28;19918;-85
2021/09/29 04:05:57;;;;;;;;;;;;;;;10.63;91.91;99782.94;4993007;28;19953;-80
2021/09/29 04:08:22;;;;;;;;;;;;;;;10.53;90.81;99784.28;4975691;28;19957;-84
2021/09/29 04:10:47;;;;;;;;;;;;;;;10.52;88.11;99783.38;4975056;28;19922;-83
2021/09/29 04:13:12;;;;;;;;;;;;;;;10.43;89.56;99790.88;4974185;28;19926;-85
2021/09/29 04:15:38;;;;;;;;;;;;;;;10.45;88.05;99784.59;4993189;28;19921;-81
2021/09/29 04:18:03;;;;;;;;;;;;;;;10.47;87.14;99787.19;4974802;28;20317;-80
2021/09/29 04:20:28;;;;;;;;;;;;;;;10.47;85.94;99776.59;4993058;28;20408;-80
2021/09/29 04:22:54;;;;;;;;;;;;;;;10.48;86.90;99783.59;4992655;28;19956;-85
2021/09/29 04:25:20;;;;;;;;;;;;;;;10.45;85.38;99784.59;4975376;28;20293;-81
2021/09/29 04:27:45;;;;;;;;;;;;;;;10.47;86.72;99788.03;4991507;28;19965;-80
2021/09/29 04:30:14;;;;;;;;;;;;;;;10.39;86.37;99784.84;4991464;28;19918;-81
2021/09/29 04:32:39;;;;;;;;;;;;;;;10.39;88.18;99786.63;4991669;28;20028;-82
2021/09/29 04:35:05;;;;;;;;;;;;;;;10.39;89.33;99789.25;4991990;28;20004;-80
2021/09/29 04:37:30;;;;;;;;;;;;;;;10.32;87.31;99781.59;4992692;28;19926;-81
2021/09/29 04:39:55;;;;;;;;;;;;;;;10.35;88.98;99778.81;4992796;28;20316;-81
2021/09/29 04:42:20;;;;;;;;;;;;;;;10.30;87.29;99779.91;4973716;28;19918;-84
2021/09/29 07:59:17;;;;;;;;;;;;;;;10.40;81.57;99783.91;4988339;28;19933;-82
2021/09/29 08:01:42;;;;;;;;;;;;;;;10.48;82.39;99783.59;5004467;28;19934;-80
2021/09/29 08:04:07;;;;;;;;;;;;;;;10.48;83.08;99780.94;5003153;28;19926;-80
2021/09/29 08:06:34;;;;;;;;;;;;;;;10.50;83.26;99787.06;5002895;28;19917;-79
2021/09/29 08:09:00;;;;;;;;;;;;;;;10.44;83.63;99792.59;5001587;28;19922;-79
2021/09/29 08:11:25;;;;;;;;;;;;;;;10.60;82.84;99777.78;4983283;28;19922;-84
2021/09/29 08:13:51;;;;;;;;;;;;;;;10.53;82.90;99781.63;4994180;28;20125;-78
2021/09/29 08:16:16;;;;;;;;;;;;;;;10.46;84.15;99775.69;4992851;28;20364;-80
2021/09/29 08:18:41;;;;;;;;;;;;;;;10.35;84.27;99770.88;4974924;28;19936;-79
2021/09/29 08:21:13;;;;;;;;;;;;;;;10.26;84.82;99787.13;4993035;28;19921;-79
2021/09/29 08:23:40;;;;;;;;;;;;;;;10.40;85.02;99791.00;4992786;28;20012;-84
2021/09/29 08:31:03;;;;;;;;;;;;;;;10.44;84.71;99785.50;4992889;28;20004;-79
2021/09/29 08:38:47;;;;;;;;;;;;;;;10.49;84.67;99787.97;4992535;28;19944;-86
2021/09/29 08:41:26;;;;;;;;;;;;;;;10.49;84.82;99796.75;4992098;28;20001;-84
2021/09/29 08:44:02;;;;;;;;;;;;;;;10.48;85.02;99788.88;4973949;28;19926;-86
2021/09/29 08:46:35;;;;;;;;;;;;;;;10.54;86.66;99783.31;4992407;28;19961;-81
2021/09/29 08:57:19;;;;;;;;;;;;;;;10.29;86.34;99776.41;4990738;28;19929;-82
2021/09/29 09:16:23;;;;;;;;;;;;;;;10.67;85.47;99776.59;4992614;28;20284;-80
2021/09/29 09:18:50;;;;;;;;;;;;;;;10.60;84.86;99761.88;4992121;28;19964;-81
2021/09/29 09:21:19;;;;;;;;;;;;;;;10.58;85.01;99762.84;4973992;28;20459;-88
2021/09/29 09:23:45;;;;;;;;;;;;;;;10.69;84.30;99756.19;4988869;28;19918;-89
2021/09/29 09:26:13;;;;;;;;;;;;;;;10.68;85.12;99753.59;4992248;28;19918;-82
2021/09/29 09:28:39;;;;;;;;;;;;;;;10.88;86.29;99750.94;4989180;28;19922;-85
2021/09/29 09:31:09;;;;;;;;;;;;;;;10.80;87.55;99763.66;4989403;28;19964;-88
2021/09/29 09:33:45;;;;;;;;;;;;;;;10.83;87.85;99776.78;4990856;28;19913;-81
2021/09/29 09:36:10;;;;;;;;;;;;;;;10.85;86.98;99777.56;4974375;28;19925;-80
2021/09/29 09:38:40;;;;;;;;;;;;;;;10.75;85.17;99780.69;4974878;28;20022;-80
2021/09/29 09:41:06;;;;;;;;;;;;;;;10.64;86.75;99779.38;4992226;28;19918;-86
2021/09/29 09:43:31;;;;;;;;;;;;;;;10.69;85.95;99776.50;4972432;28;19995;-81
2021/09/29 09:45:58;;;;;;;;;;;;;;;10.78;85.99;99785.84;4974067;28;19976;-82
2021/09/29 09:48:25;;;;;;;;;;;;;;;10.64;87.72;99771.41;4991065;28;19918;-81
2021/09/29 09:50:55;;;;;;;;;;;;;;;10.78;88.63;99769.94;4974087;28;19976;-88
2021/09/29 09:53:21;;;;;;;;;;;;;;;10.82;88.07;99785.66;4989474;28;19921;-82
2021/09/29 09:55:46;;;;;;;;;;;;;;;10.78;86.77;99788.50;4991141;28;19925;-82
2021/09/29 09:58:11;;;;;;;;;;;;;;;10.54;87.37;99783.31;4989788;28;19928;-81
2021/09/29 10:00:37;;;;;;;;;;;;;;;10.80;88.54;99791.94;4973627;28;20000;-80
2021/09/29 10:03:03;;;;;;;;;;;;;;;10.65;88.66;99791.66;4973231;28;19921;-83
2021/09/29 10:05:30;;;;;;;;;;;;;;;10.82;89.67;99798.06;4988776;28;19925;-87
2021/09/29 10:07:55;;;;;;;;;;;;;;;10.89;88.03;99789.75;4990070;28;19929;-80
2021/09/29 10:27:18;;;;;;;;;;;;;;;10.79;88.56;99798.19;4992537;28;20741;-87
2021/09/29 10:29:56;;;;;;;;;;;;;;;10.67;87.85;99797.78;4993664;28;19980;-81
2021/09/29 10:32:30;;;;;;;;;;;;;;;10.83;89.77;99803.28;4975303;28;20370;-86
2021/09/29 10:37:53;;;;;;;;;;;;;;;10.72;87.37;99809.03;4993607;28;20344;-81
2021/09/29 10:43:04;;;;;;;;;;;;;;;10.75;87.66;99815.97;4992947;28;19928;-87
2021/09/29 10:45:41;;;;;;;;;;;;;;;10.69;86.90;99810.94;4993894;28;19925;-84
2021/09/29 10:49:02;;;;;;;;;;;;;;;10.70;87.79;99816.19;4976235;28;19932;-87
2021/09/29 11:31:26;;;;;;;;;;;;;;;10.73;82.95;99871.69;4994444;28;19922;-82
2021/09/29 11:34:02;;;;;;;;;;;;;;;10.64;85.01;99869.47;4994119;28;19926;-86
2021/09/29 11:39:28;;;;;;;;;;;;;;;10.75;84.72;99881.38;4993704;28;19924;-82
2021/09/29 12:09:30;;;;;;;;;;;;;;;10.75;83.79;99900.78;4993361;28;20383;-85
2021/09/29 12:12:05;;;;;;;;;;;;;;;10.75;84.67;99902.59;4975025;28;20376;-90
2021/09/29 12:14:34;;;;;;;;;;;;;;;10.81;82.93;99905.84;4993623;28;19948;-86
2021/09/29 12:16:59;;;;;;;;;;;;;;;10.69;82.78;99904.56;4976605;28;19922;-85
2021/09/29 12:19:26;;;;;;;;;;;;;;;10.67;84.32;99895.84;4976396;28;19976;-89
2021/09/29 12:22:01;;;;;;;;;;;;;;;10.66;83.24;99907.34;4975466;28;19991;-82
2021/09/29 12:24:27;;;;;;;;;;;;;;;10.81;84.47;99915.59;4975627;28;20028;-82
2021/09/29 12:26:54;;;;;;;;;;;;;;;10.78;82.74;99910.41;4974149;28;19921;-85
2021/09/29 12:29:31;;;;;;;;;;;;;;;10.72;81.73;99919.47;4975840;28;19917;-92
2021/09/29 12:32:10;;;;;;;;;;;;;;;10.67;81.65;99922.34;4975220;28;19980;-81
2021/09/29 12:35:00;;;;;;;;;;;;;;;10.78;82.13;99921.88;4993008;28;20389;-84
2021/09/29 12:37:25;;;;;;;;;;;;;;;10.95;83.70;99922.97;4975465;28;19957;-82
2021/09/29 12:39:54;;;;;;;;;;;;;;;10.88;83.72;99922.34;4975622;28;19953;-85
2021/09/29 12:42:27;;;;;;;;;;;;;;;10.83;83.01;99921.69;4974374;28;19917;-83
2021/09/29 12:44:52;;;;;;;;;;;;;;;10.75;82.14;99929.94;4991197;28;20005;-81
2021/09/29 12:49:43;;;;;;;;;;;;;;;10.79;82.27;99928.06;4993446;28;19922;-90
2021/09/29 12:52:12;;;;;;;;;;;;;;;10.78;82.80;99932.47;4992293;28;19968;-85
2021/09/29 12:54:39;;;;;;;;;;;;;;;10.68;81.10;99929.34;4976154;28;19921;-90
2021/09/29 12:57:05;;;;;;;;;;;;;;;10.79;82.31;99936.84;4991689;28;19929;-81
2021/09/29 12:59:30;;;;;;;;;;;;;;;10.71;81.51;99923.91;4993197;28;20293;-81
2021/09/29 13:01:55;;;;;;;;;;;;;;;10.79;79.98;99926.25;4976070;28;19989;-83
2021/09/29 13:04:22;;;;;;;;;;;;;;;10.73;80.89;99932.66;4993398;28;19918;-87
2021/09/29 13:06:47;;;;;;;;;;;;;;;10.70;80.18;99938.09;4993164;28;20012;-84
2021/09/29 13:09:12;;;;;;;;;;;;;;;10.79;82.67;99930.72;4975699;28;20385;-89
2021/09/29 13:11:38;;;;;;;;;;;;;;;10.66;80.06;99936.50;4975057;28;19922;-91
2021/09/29 13:14:03;;;;;;;;;;;;;;;10.69;81.80;99933.72;4974325;28;19933;-86
2021/09/29 13:16:29;;;;;;;;;;;;;;;10.76;81.34;99938.78;4975500;28;19925;-89
2021/09/29 13:19:00;;;;;;;;;;;;;;;10.77;80.60;99946.66;4975223;28;19928;-82
2021/09/29 13:22:15;;;;;;;;;;;;;;;10.70;80.78;99951.34;4992259;28;20031;-82
2021/09/29 13:37:34;;;;;;;;;;;;;;;10.93;81.51;99973.41;4993350;28;20012;-93
2021/09/29 13:40:00;;;;;;;;;;;;;;;10.96;81.33;99970.63;4975237;28;20090;-83
2021/09/29 13:42:25;;;;;;;;;;;;;;;10.90;78.91;99976.19;4974939;28;19969;-81
2021/09/29 13:44:50;;;;;;;;;;;;;;;10.80;79.91;99974.81;4974614;28;19918;-81
2021/09/29 13:47:16;;;;;;;;;;;;;;;10.85;79.38;99988.75;4978986;28;19918;-80
2021/09/29 13:49:41;;;;;;;;;;;;;;;10.74;79.70;99981.25;4978753;28;19922;-81
2021/09/29 13:52:11;;;;;;;;;;;;;;;10.74;79.45;99978.59;4993311;28;19921;-90
2021/09/29 13:54:37;;;;;;;;;;;;;;;10.70;78.51;99985.78;4978326;28;19921;-86
2021/09/29 13:57:19;;;;;;;;;;;;;;;10.93;81.31;99991.09;4995641;28;19928;-80
2021/09/29 14:30:14;;;;;;;;;;;;;;;10.74;76.51;100018.34;4995999;28;19929;-90
2021/09/29 14:35:24;;;;;;;;;;;;;;;10.70;76.43;100009.63;4995715;28;19948;-85
2021/09/29 14:37:49;;;;;;;;;;;;;;;10.64;76.33;100017.84;4995412;28;19922;-87
2021/09/29 14:40:15;;;;;;;;;;;;;;;10.64;76.26;100020.50;4978569;28;19918;-90
2021/09/29 14:42:40;;;;;;;;;;;;;;;10.65;76.54;100030.16;4976464;28;19926;-86
2021/09/29 14:45:06;;;;;;;;;;;;;;;10.70;76.88;100017.59;4978076;28;19922;-82
2021/09/29 14:47:31;;;;;;;;;;;;;;;10.76;76.54;100020.94;4977544;28;20042;-83
2021/09/29 14:49:57;;;;;;;;;;;;;;;10.69;76.98;100042.38;4977892;28;20332;-81
2021/09/29 14:52:22;;;;;;;;;;;;;;;10.72;76.78;100046.69;4995337;28;20017;-86
2021/09/29 14:54:48;;;;;;;;;;;;;;;10.70;75.57;100053.84;4977404;28;19917;-88
2021/09/29 14:57:13;;;;;;;;;;;;;;;10.66;76.33;100062.84;4974042;28;19926;-88
2021/09/29 14:59:44;;;;;;;;;;;;;;;10.70;75.17;100067.09;4977419;28;19921;-87
2021/09/29 15:02:09;;;;;;;;;;;;;;;10.60;75.79;100078.97;4995454;28;19968;-85
2021/09/29 15:04:35;;;;;;;;;;;;;;;10.86;78.64;100110.63;4995059;28;19969;-82
2021/09/29 15:07:00;;;;;;;;;;;;;;;10.92;77.62;100112.19;4994515;28;19965;-84
2021/09/29 15:09:25;;;;;;;;;;;;;;;10.98;78.61;100121.69;4978006;28;19929;-81
2021/09/29 15:11:50;;;;;;;;;;;;;;;10.91;76.94;100110.44;4975498;28;19918;-91
2021/09/29 15:14:24;;;;;;;;;;;;;;;10.84;77.11;100115.13;4977719;28;19926;-92
2021/09/29 15:16:58;;;;;;;;;;;;;;;10.87;76.73;100106.19;4976081;28;19925;-83
2021/09/29 15:19:31;;;;;;;;;;;;;;;10.76;76.54;100103.97;4994225;28;20012;-88
2021/09/29 15:27:36;;;;;;;;;;;;;;;10.67;75.58;100107.84;4994430;28;20819;-82
2021/09/29 15:48:51;;;;;;;;;;;;;;;10.67;74.33;100152.88;4993597;28;20005;-93
2021/09/29 15:51:19;;;;;;;;;;;;;;;10.78;76.14;100156.91;4993549;28;19929;-83
2021/09/29 16:01:35;;;;;;;;;;;;;;;18.78;51.12;100158.25;4993650;28;19918;-75
2021/09/29 16:04:28;;;;;;;;;;;;;;;18.83;51.37;100156.97;4993292;28;19922;-72
2021/09/29 16:06:56;;;;;;;;;;;;;;;18.69;51.93;100171.38;4992152;28;19917;-72
2021/09/29 16:30:45;;;;;;;;;;;;;;;17.59;55.43;100210.06;4993035;28;19964;-71
2021/09/29 16:33:25;;;;;;;;;;;;;;;17.52;56.48;100208.75;4992360;28;19921;-71
2021/09/29 16:35:51;;;;;;;;;;;;;;;17.68;56.09;100205.94;4992835;28;19976;-72
2021/09/29 16:38:17;;;;;;;;;;;;;;;17.59;57.12;100207.38;4992024;28;20373;-72
2021/09/29 16:40:42;;;;;;;;;;;;;;;17.61;58.45;100220.69;4992822;28;19961;-71
2021/09/29 16:43:07;;;;;;;;;;;;;;;17.41;59.12;100214.81;4991500;28;19918;-71
2021/09/29 16:45:33;;;;;;;;;;;;;;;14.08;74.96;100233.75;4992575;28;19922;-78
2021/09/29 16:47:58;;;;;;;;;;;;;;;12.13;90.24;100236.47;4991772;28;20325;-78
2021/09/29 16:50:31;;;;;;;;;;;;;;;11.79;97.79;100251.09;4975221;28;20016;-78
2021/09/29 16:52:58;;;;;;;;;;;;;;;11.85;100.00;100255.28;4992576;28;19918;-77
2021/09/29 16:55:29;;;;;;;;;;;;;;;11.93;100.00;100247.03;4992510;28;19922;-78
2021/09/29 16:58:07;;;;;;;;;;;;;;;12.01;100.00;100252.03;4991557;28;19922;-79
2021/09/29 17:00:48;;;;;;;;;;;;;;;12.07;100.00;100257.09;4975132;28;19925;-80
2021/09/29 17:03:14;;;;;;;;;;;;;;;12.15;100.00;100260.31;4993026;28;19918;-78
2021/09/29 17:05:39;;;;;;;;;;;;;;;12.09;100.00;100264.06;4991917;28;20017;-79
2021/09/29 17:08:05;;;;;;;;;;;;;;;12.15;100.00;100263.81;4992262;28;20320;-79
2021/09/29 17:10:31;;;;;;;;;;;;;;;12.20;100.00;100270.75;4992567;28;20435;-78
2021/09/29 17:12:56;;;;;;;;;;;;;;;12.24;100.00;100280.28;4991170;28;19941;-79
2021/09/29 17:15:21;;;;;;;;;;;;;;;12.25;100.00;100282.03;4992733;28;19922;-77
2021/09/29 17:17:47;;;;;;;;;;;;;;;12.20;100.00;100286.69;4992495;28;19924;-79
2021/09/29 17:20:12;;;;;;;;;;;;;;;12.24;100.00;100288.25;4978983;28;19949;-78
2021/09/29 17:22:39;;;;;;;;;;;;;;;12.22;100.00;100301.63;4996428;28;19914;-79
2021/09/29 17:25:05;;;;;;;;;;;;;;;12.21;100.00;100301.69;4996184;28;19928;-79
2021/09/29 17:27:30;;;;;;;;;;;;;;;12.20;100.00;100315.91;4994118;28;19918;-78
2021/09/29 17:29:58;;;;;;;;;;;;;;;12.27;100.00;100312.03;4996378;28;20250;-78
2021/09/29 17:32:38;;;;;;;;;;;;;;;12.21;100.00;100318.50;4995662;28;19921;-78
2021/09/29 17:37:52;;;;;;;;;;;;;;;12.35;100.00;100349.81;4996180;28;19918;-78
2021/09/29 17:53:54;;;;;;;;;;;;;;;12.28;100.00;100358.94;4996149;28;19921;-79
2021/09/29 17:56:20;;;;;;;;;;;;;;;12.26;100.00;100366.13;4994968;28;19918;-78
2021/09/29 17:58:45;;;;;;;;;;;;;;;12.27;100.00;100367.84;4994119;28;19926;-80
2021/09/29 18:01:12;;;;;;;;;;;;;;;12.32;100.00;100374.72;4977707;28;19918;-79
2021/09/29 18:03:43;;;;;;;;;;;;;;;12.33;100.00;100375.56;4995653;28;19984;-79
2021/09/29 18:08:34;;;;;;;;;;;;;;;12.34;100.00;100382.63;4995532;28;19966;-79
2021/09/29 18:11:00;;;;;;;;;;;;;;;12.35;100.00;100384.38;4995298;28;20020;-79
2021/09/29 18:13:25;;;;;;;;;;;;;;;11.33;100.00;100388.22;4993706;28;20017;-79
2021/09/29 18:15:51;;;;;;;;;;;;;;;9.91;100.00;100386.75;4977895;28;19921;-79
2021/09/29 18:18:16;;;;;;;;;;;;;;;9.21;100.00;100394.03;4995249;28;19937;-79
2021/09/29 18:20:42;;;;;;;;;;;;;;;8.85;98.50;100398.53;4995018;28;19918;-78
2021/09/29 18:23:07;;;;;;;;;;;;;;;8.58;97.40;100403.59;4995136;28;19929;-79
2021/09/29 18:25:39;;;;;;;;;;;;;;;8.28;95.35;100406.06;4995140;28;20325;-78
2021/09/29 18:28:05;;;;;;;;;;;;;;;8.19;94.68;100415.06;4976348;28;19925;-79
2021/09/29 18:30:30;;;;;;;;;;;;;;;8.05;93.88;100422.41;4994163;28;19922;-79
2021/09/29 18:32:58;;;;;;;;;;;;;;;7.99;92.88;100428.72;4995133;28;20020;-78
2021/09/29 18:35:28;;;;;;;;;;;;;;;7.84;92.84;100428.19;4977527;28;19929;-79
2021/09/29 18:37:55;;;;;;;;;;;;;;;7.78;92.16;100429.16;4994566;28;20427;-79
2021/09/29 18:40:21;;;;;;;;;;;;;;;7.66;91.56;100432.94;4994904;28;19921;-79
2021/09/29 18:42:47;;;;;;;;;;;;;;;7.56;91.15;100439.28;4993640;28;19918;-79
2021/09/29 18:45:12;;;;;;;;;;;;;;;7.46;89.65;100434.19;4994782;28;20012;-78
2021/09/29 18:47:38;;;;;;;;;;;;;;;7.38;89.13;100441.38;4977183;28;20042;-79
2021/09/29 18:50:03;;;;;;;;;;;;;;;7.42;88.04;100437.81;4977493;28;19924;-78
2021/09/29 18:52:30;;;;;;;;;;;;;;;7.24;87.37;100449.56;4994714;28;19944;-79
2021/09/29 18:55:10;;;;;;;;;;;;;;;7.12;87.29;100448.94;4994214;28;19918;-78
2021/09/29 19:08:26;;;;;;;;;;;;;;;6.81;84.89;100467.88;4994083;28;19952;-78
2021/09/29 19:10:52;;;;;;;;;;;;;;;6.63;84.67;100467.28;4994469;28;20292;-79
2021/09/29 19:13:22;;;;;;;;;;;;;;;6.62;84.60;100469.94;4992954;28;19918;-78
2021/09/29 19:15:47;;;;;;;;;;;;;;;6.61;84.25;100470.84;4976772;28;19924;-79
2021/09/29 19:18:12;;;;;;;;;;;;;;;6.50;84.00;100471.00;4994092;28;19922;-78
2021/09/29 19:20:38;;;;;;;;;;;;;;;6.47;83.88;100474.56;4994222;28;19918;-79
2021/09/29 19:23:03;;;;;;;;;;;;;;;6.39;84.05;100481.69;4994072;28;19976;-78
2021/09/29 19:25:28;;;;;;;;;;;;;;;6.36;83.78;100490.50;4994000;28;19925;-78
2021/09/29 19:28:00;;;;;;;;;;;;;;;6.28;84.12;100492.38;4992644;28;20270;-79
2021/09/29 19:30:25;;;;;;;;;;;;;;;6.16;84.48;100492.56;4993712;28;19921;-79
2021/09/29 19:32:53;;;;;;;;;;;;;;;6.18;84.30;100493.41;4993992;28;19968;-77
2021/09/29 19:35:19;;;;;;;;;;;;;;;6.04;84.28;100483.06;4993794;28;19918;-78
2021/09/29 19:37:45;;;;;;;;;;;;;;;6.08;84.17;100494.41;4993890;28;19924;-78
2021/09/29 19:40:11;;;;;;;;;;;;;;;6.04;84.04;100497.97;4993765;28;19924;-78
2021/09/29 19:42:37;;;;;;;;;;;;;;;6.02;83.99;100505.03;4992231;28;19968;-78
2021/09/29 19:45:04;;;;;;;;;;;;;;;5.95;84.15;100509.44;4993145;28;19949;-77
2021/09/29 20:08:45;;;;;;;;;;;;;;;5.63;83.65;100536.97;4992799;28;20434;-79
2021/09/29 20:11:10;;;;;;;;;;;;;;;5.72;83.63;100539.50;4993212;28;19918;-78
2021/09/29 20:13:36;;;;;;;;;;;;;;;5.67;83.16;100551.00;4992118;28;20432;-79
2021/09/29 20:16:03;;;;;;;;;;;;;;;5.59;82.88;100544.03;4993049;28;19940;-78
2021/09/29 20:18:31;;;;;;;;;;;;;;;5.45;83.58;100552.06;4993275;28;20004;-79
2021/09/29 20:20:57;;;;;;;;;;;;;;;5.52;83.45;100550.25;4992127;28;20315;-78
2021/09/29 20:23:23;;;;;;;;;;;;;;;5.33;84.08;100552.19;4992819;28;19929;-79
2021/09/29 20:25:48;;;;;;;;;;;;;;;5.36;83.73;100561.78;4992999;28;19918;-79
2021/09/29 20:28:14;;;;;;;;;;;;;;;5.25;84.14;100568.03;4991666;28;19917;-79
2021/09/29 20:30:44;;;;;;;;;;;;;;;5.31;83.97;100568.84;4992448;28;19922;-79
2021/09/29 20:33:17;;;;;;;;;;;;;;;5.31;83.70;100563.59;4975452;28;20293;-79
2021/09/29 20:43:58;;;;;;;;;;;;;;;5.31;83.54;100581.97;4991706;28;19968;-78
2021/09/29 20:46:24;;;;;;;;;;;;;;;5.18;83.85;100582.06;4992809;28;19918;-77
2021/09/29 20:48:49;;;;;;;;;;;;;;;5.14;83.98;100592.63;4992492;28;20024;-79
2021/09/29 20:51:14;;;;;;;;;;;;;;;5.00;84.29;100592.75;4992581;28;20009;-78
2021/09/29 20:53:40;;;;;;;;;;;;;;;4.98;84.27;100587.50;4974577;28;19918;-79
2021/09/29 20:56:10;;;;;;;;;;;;;;;5.04;83.95;100595.34;4992425;28;19924;-79
2021/09/29 20:58:35;;;;;;;;;;;;;;;5.05;84.21;100593.56;4991079;28;19925;-78
2021/09/29 21:01:00;;;;;;;;;;;;;;;4.97;84.02;100600.66;4992453;28;20317;-79
2021/09/29 21:03:25;;;;;;;;;;;;;;;4.99;84.16;100599.72;4992470;28;19918;-79
2021/09/29 21:05:51;;;;;;;;;;;;;;;4.95;83.74;100602.41;4992541;28;20721;-78
2021/09/29 21:08:18;;;;;;;;;;;;;;;4.89;84.43;100601.56;4992298;28;19971;-79
2021/09/29 21:10:52;;;;;;;;;;;;;;;4.87;84.56;100605.94;4991856;28;19929;-78
2021/09/29 21:13:22;;;;;;;;;;;;;;;4.92;84.68;100608.56;4991025;28;19914;-78
2021/09/29 21:15:59;;;;;;;;;;;;;;;4.93;84.95;100614.66;4991126;28;19917;-79
2021/09/29 21:18:26;;;;;;;;;;;;;;;4.98;84.90;100618.13;4992184;28;19921;-78
2021/09/29 21:20:51;;;;;;;;;;;;;;;4.93;85.25;100609.41;4992239;28;19976;-79
2021/09/29 21:23:17;;;;;;;;;;;;;;;4.98;85.04;100620.75;4974817;28;20000;-79
2021/09/29 21:25:45;;;;;;;;;;;;;;;4.91;84.96;100618.19;4992398;28;20564;-78
2021/09/29 21:28:11;;;;;;;;;;;;;;;5.25;84.75;100623.19;4989739;28;19965;-79
2021/09/29 21:30:45;;;;;;;;;;;;;;;5.04;84.72;100623.34;4974941;28;19968;-80
2021/09/29 21:33:13;;;;;;;;;;;;;;;4.99;85.54;100630.38;4991740;28;19918;-79
2021/09/29 21:35:38;;;;;;;;;;;;;;;4.92;85.19;100624.31;4992161;28;20361;-79
2021/09/29 22:05:04;;;;;;;;;;;;;;;4.64;84.79;100647.22;4992109;28;19922;-79
2021/09/29 22:13:03;;;;;;;;;;;;;;;4.72;84.54;100656.81;4994328;28;19921;-80
2021/09/29 23:07:05;;;;;;;;;;;;;;;4.33;85.68;100663.09;4994862;28;19996;-80
2021/09/29 23:23:11;;;;;;;;;;;;;;;4.32;86.25;100679.72;4994893;28;19942;-78
2021/09/29 23:33:49;;;;;;;;;;;;;;;4.32;85.30;100687.56;4994663;28;19928;-81
2021/09/29 23:36:14;;;;;;;;;;;;;;;4.25;85.44;100698.97;4993996;28;19921;-80
2021/09/29 23:38:40;;;;;;;;;;;;;;;4.33;85.76;100695.44;4993301;28;20332;-81
